sensor_id;sensor_type;location;lat;lon;timestamp;P1;durP1;ratioP1;P2;durP2;ratioP2
65597;SDS011;52267;51.984;20.956;2022-12-18T00:01:29;33.60;;;14.40;;
65597;SDS011;52267;51.984;20.956;2022-12-18T00:04:01;32.10;;;14.20;;
65597;SDS011;52267;51.984;20.956;2022-12-18T00:06:33;35.00;;;15.60;;
65597;SDS011;52267;51.984;20.956;2022-12-18T00:09:02;38.40;;;15.70;;
65597;SDS011;52267;51.984;20.956;2022-12-18T00:11:31;35.50;;;13.40;;
65597;SDS011;52267;51.984;20.956;2022-12-18T00:13:59;34.70;;;13.10;;
65597;SDS011;52267;51.984;20.956;2022-12-18T00:16:28;34.10;;;15.00;;
65597;SDS011;52267;51.984;20.956;2022-12-18T00:18:57;33.10;;;14.60;;
65597;SDS011;52267;51.984;20.956;2022-12-18T00:21:25;36.40;;;14.70;;
65597;SDS011;52267;51.984;20.956;2022-12-18T00:23:53;32.50;;;14.30;;
65597;SDS011;52267;51.984;20.956;2022-12-18T00:26:32;40.10;;;14.50;;
65597;SDS011;52267;51.984;20.956;2022-12-18T00:29:04;35.10;;;14.30;;
65597;SDS011;52267;51.984;20.956;2022-12-18T00:31:37;35.00;;;15.20;;
65597;SDS011;52267;51.984;20.956;2022-12-18T00:34:04;37.50;;;15.30;;
65597;SDS011;52267;51.984;20.956;2022-12-18T00:36:34;31.80;;;13.20;;
65597;SDS011;52267;51.984;20.956;2022-12-18T00:39:04;34.70;;;14.20;;
65597;SDS011;52267;51.984;20.956;2022-12-18T00:41:32;39.70;;;15.80;;
65597;SDS011;52267;51.984;20.956;2022-12-18T00:44:18;31.00;;;13.50;;
65597;SDS011;52267;51.984;20.956;2022-12-18T00:46:47;34.10;;;14.80;;
65597;SDS011;52267;51.984;20.956;2022-12-18T00:49:16;38.30;;;15.10;;
65597;SDS011;52267;51.984;20.956;2022-12-18T00:51:47;30.90;;;13.80;;
65597;SDS011;52267;51.984;20.956;2022-12-18T00:54:15;34.50;;;14.60;;
65597;SDS011;52267;51.984;20.956;2022-12-18T00:56:43;36.60;;;14.70;;
65597;SDS011;52267;51.984;20.956;2022-12-18T00:59:11;31.10;;;15.00;;
65597;SDS011;52267;51.984;20.956;2022-12-18T01:01:38;43.80;;;16.40;;
65597;SDS011;52267;51.984;20.956;2022-12-18T01:04:05;39.00;;;15.90;;
65597;SDS011;52267;51.984;20.956;2022-12-18T01:06:32;33.80;;;13.60;;
65597;SDS011;52267;51.984;20.956;2022-12-18T01:08:59;37.90;;;13.20;;
65597;SDS011;52267;51.984;20.956;2022-12-18T01:11:26;32.80;;;13.20;;
65597;SDS011;52267;51.984;20.956;2022-12-18T01:13:54;35.20;;;14.60;;
65597;SDS011;52267;51.984;20.956;2022-12-18T01:16:22;35.20;;;14.30;;
65597;SDS011;52267;51.984;20.956;2022-12-18T01:18:53;37.60;;;15.60;;
65597;SDS011;52267;51.984;20.956;2022-12-18T01:21:23;33.00;;;14.40;;
65597;SDS011;52267;51.984;20.956;2022-12-18T01:23:54;38.20;;;14.70;;
65597;SDS011;52267;51.984;20.956;2022-12-18T01:26:24;34.10;;;14.50;;
65597;SDS011;52267;51.984;20.956;2022-12-18T01:28:54;30.90;;;12.60;;
65597;SDS011;52267;51.984;20.956;2022-12-18T01:31:24;38.20;;;15.20;;
65597;SDS011;52267;51.984;20.956;2022-12-18T01:36:24;35.90;;;13.00;;
65597;SDS011;52267;51.984;20.956;2022-12-18T01:38:53;30.80;;;12.60;;
65597;SDS011;52267;51.984;20.956;2022-12-18T01:41:23;32.10;;;13.70;;
65597;SDS011;52267;51.984;20.956;2022-12-18T01:43:56;32.40;;;13.70;;
65597;SDS011;52267;51.984;20.956;2022-12-18T01:46:25;37.20;;;14.70;;
65597;SDS011;52267;51.984;20.956;2022-12-18T01:48:57;34.10;;;14.40;;
65597;SDS011;52267;51.984;20.956;2022-12-18T01:51:27;33.80;;;13.50;;
65597;SDS011;52267;51.984;20.956;2022-12-18T01:53:55;33.30;;;13.60;;
65597;SDS011;52267;51.984;20.956;2022-12-18T01:56:22;34.60;;;13.90;;
65597;SDS011;52267;51.984;20.956;2022-12-18T01:59:02;34.90;;;14.30;;
65597;SDS011;52267;51.984;20.956;2022-12-18T02:01:32;28.60;;;13.30;;
65597;SDS011;52267;51.984;20.956;2022-12-18T02:04:25;40.80;;;15.40;;
65597;SDS011;52267;51.984;20.956;2022-12-18T02:07:20;34.70;;;14.50;;
65597;SDS011;52267;51.984;20.956;2022-12-18T02:23:06;31.90;;;13.40;;
65597;SDS011;52267;51.984;20.956;2022-12-18T02:26:05;37.80;;;13.80;;
65597;SDS011;52267;51.984;20.956;2022-12-18T02:28:42;43.50;;;15.70;;
65597;SDS011;52267;51.984;20.956;2022-12-18T02:31:21;35.70;;;14.90;;
65597;SDS011;52267;51.984;20.956;2022-12-18T02:36:24;34.40;;;14.70;;
65597;SDS011;52267;51.984;20.956;2022-12-18T02:38:53;39.30;;;15.70;;
65597;SDS011;52267;51.984;20.956;2022-12-18T02:41:22;40.10;;;17.40;;
65597;SDS011;52267;51.984;20.956;2022-12-18T02:43:56;39.50;;;16.40;;
65597;SDS011;52267;51.984;20.956;2022-12-18T02:46:31;32.60;;;14.60;;
65597;SDS011;52267;51.984;20.956;2022-12-18T02:50:10;35.00;;;14.60;;
65597;SDS011;52267;51.984;20.956;2022-12-18T03:00:53;35.00;;;14.60;;
65597;SDS011;52267;51.984;20.956;2022-12-18T03:06:06;30.00;;;12.60;;
65597;SDS011;52267;51.984;20.956;2022-12-18T03:08:42;39.70;;;14.10;;
65597;SDS011;52267;51.984;20.956;2022-12-18T03:11:12;34.10;;;14.20;;
65597;SDS011;52267;51.984;20.956;2022-12-18T03:13:49;35.60;;;13.90;;
65597;SDS011;52267;51.984;20.956;2022-12-18T03:16:24;33.30;;;13.50;;
65597;SDS011;52267;51.984;20.956;2022-12-18T03:18:57;37.40;;;14.30;;
65597;SDS011;52267;51.984;20.956;2022-12-18T03:21:35;30.00;;;12.50;;
65597;SDS011;52267;51.984;20.956;2022-12-18T03:24:07;33.40;;;13.00;;
65597;SDS011;52267;51.984;20.956;2022-12-18T03:26:40;42.50;;;14.80;;
65597;SDS011;52267;51.984;20.956;2022-12-18T03:29:12;33.20;;;12.80;;
65597;SDS011;52267;51.984;20.956;2022-12-18T03:31:49;40.00;;;13.90;;
65597;SDS011;52267;51.984;20.956;2022-12-18T03:34:23;37.40;;;12.70;;
65597;SDS011;52267;51.984;20.956;2022-12-18T03:36:53;39.30;;;13.60;;
65597;SDS011;52267;51.984;20.956;2022-12-18T03:39:20;25.30;;;10.10;;
65597;SDS011;52267;51.984;20.956;2022-12-18T03:42:46;39.20;;;15.20;;
65597;SDS011;52267;51.984;20.956;2022-12-18T03:51:09;36.00;;;14.30;;
65597;SDS011;52267;51.984;20.956;2022-12-18T03:56:22;40.10;;;15.90;;
65597;SDS011;52267;51.984;20.956;2022-12-18T03:58:52;31.80;;;15.90;;
65597;SDS011;52267;51.984;20.956;2022-12-18T04:01:24;36.20;;;14.40;;
65597;SDS011;52267;51.984;20.956;2022-12-18T04:03:58;39.10;;;13.80;;
65597;SDS011;52267;51.984;20.956;2022-12-18T04:06:28;40.40;;;13.00;;
65597;SDS011;52267;51.984;20.956;2022-12-18T04:08:57;33.90;;;14.50;;
65597;SDS011;52267;51.984;20.956;2022-12-18T04:11:25;31.80;;;13.20;;
65597;SDS011;52267;51.984;20.956;2022-12-18T04:13:56;34.70;;;15.10;;
65597;SDS011;52267;51.984;20.956;2022-12-18T04:18:52;33.00;;;11.60;;
65597;SDS011;52267;51.984;20.956;2022-12-18T04:21:20;29.80;;;11.80;;
65597;SDS011;52267;51.984;20.956;2022-12-18T04:23:47;41.20;;;13.60;;
65597;SDS011;52267;51.984;20.956;2022-12-18T04:26:17;40.10;;;14.80;;
65597;SDS011;52267;51.984;20.956;2022-12-18T04:28:44;34.60;;;14.30;;
65597;SDS011;52267;51.984;20.956;2022-12-18T04:31:12;38.40;;;14.40;;
65597;SDS011;52267;51.984;20.956;2022-12-18T04:33:39;34.40;;;13.30;;
65597;SDS011;52267;51.984;20.956;2022-12-18T04:36:06;39.30;;;14.80;;
65597;SDS011;52267;51.984;20.956;2022-12-18T04:38:33;38.30;;;14.20;;
65597;SDS011;52267;51.984;20.956;2022-12-18T04:41:01;37.40;;;13.00;;
65597;SDS011;52267;51.984;20.956;2022-12-18T04:43:28;34.00;;;13.20;;
65597;SDS011;52267;51.984;20.956;2022-12-18T04:46:07;38.30;;;13.20;;
65597;SDS011;52267;51.984;20.956;2022-12-18T04:48:35;40.90;;;14.30;;
65597;SDS011;52267;51.984;20.956;2022-12-18T04:51:04;40.00;;;13.80;;
65597;SDS011;52267;51.984;20.956;2022-12-18T04:53:31;34.00;;;13.40;;
65597;SDS011;52267;51.984;20.956;2022-12-18T04:56:07;38.40;;;14.50;;
65597;SDS011;52267;51.984;20.956;2022-12-18T04:58:37;34.50;;;13.70;;
65597;SDS011;52267;51.984;20.956;2022-12-18T05:01:05;38.20;;;14.00;;
65597;SDS011;52267;51.984;20.956;2022-12-18T05:03:34;35.50;;;13.40;;
65597;SDS011;52267;51.984;20.956;2022-12-18T05:06:02;31.70;;;12.60;;
65597;SDS011;52267;51.984;20.956;2022-12-18T05:08:30;30.60;;;13.50;;
65597;SDS011;52267;51.984;20.956;2022-12-18T05:11:11;37.10;;;13.00;;
65597;SDS011;52267;51.984;20.956;2022-12-18T05:13:43;32.60;;;13.60;;
65597;SDS011;52267;51.984;20.956;2022-12-18T05:16:12;29.20;;;14.20;;
65597;SDS011;52267;51.984;20.956;2022-12-18T05:18:40;38.20;;;13.00;;
65597;SDS011;52267;51.984;20.956;2022-12-18T05:21:08;28.10;;;11.50;;
65597;SDS011;52267;51.984;20.956;2022-12-18T05:23:35;30.60;;;12.30;;
65597;SDS011;52267;51.984;20.956;2022-12-18T05:26:05;32.30;;;13.70;;
65597;SDS011;52267;51.984;20.956;2022-12-18T05:28:34;32.50;;;13.90;;
65597;SDS011;52267;51.984;20.956;2022-12-18T05:31:03;33.60;;;12.80;;
65597;SDS011;52267;51.984;20.956;2022-12-18T05:33:33;27.20;;;11.20;;
65597;SDS011;52267;51.984;20.956;2022-12-18T05:36:02;37.20;;;13.70;;
65597;SDS011;52267;51.984;20.956;2022-12-18T05:38:31;32.30;;;12.30;;
65597;SDS011;52267;51.984;20.956;2022-12-18T05:40:59;33.60;;;12.90;;
65597;SDS011;52267;51.984;20.956;2022-12-18T05:43:27;33.50;;;14.10;;
65597;SDS011;52267;51.984;20.956;2022-12-18T05:45:55;33.40;;;11.90;;
65597;SDS011;52267;51.984;20.956;2022-12-18T05:48:23;34.10;;;13.80;;
65597;SDS011;52267;51.984;20.956;2022-12-18T05:50:51;33.00;;;13.80;;
65597;SDS011;52267;51.984;20.956;2022-12-18T05:53:19;25.00;;;11.30;;
65597;SDS011;52267;51.984;20.956;2022-12-18T05:55:47;29.40;;;12.60;;
65597;SDS011;52267;51.984;20.956;2022-12-18T05:58:14;32.60;;;12.10;;
65597;SDS011;52267;51.984;20.956;2022-12-18T06:00:44;31.40;;;11.90;;
65597;SDS011;52267;51.984;20.956;2022-12-18T06:03:12;28.30;;;12.10;;
65597;SDS011;52267;51.984;20.956;2022-12-18T06:05:44;32.00;;;13.00;;
65597;SDS011;52267;51.984;20.956;2022-12-18T06:08:12;36.00;;;12.10;;
65597;SDS011;52267;51.984;20.956;2022-12-18T06:10:40;28.50;;;12.50;;
65597;SDS011;52267;51.984;20.956;2022-12-18T06:13:08;30.60;;;11.50;;
65597;SDS011;52267;51.984;20.956;2022-12-18T06:15:38;31.80;;;12.90;;
65597;SDS011;52267;51.984;20.956;2022-12-18T06:18:05;36.30;;;13.40;;
65597;SDS011;52267;51.984;20.956;2022-12-18T06:20:32;31.70;;;12.80;;
65597;SDS011;52267;51.984;20.956;2022-12-18T06:23:00;32.20;;;13.40;;
65597;SDS011;52267;51.984;20.956;2022-12-18T06:25:27;36.10;;;14.70;;
65597;SDS011;52267;51.984;20.956;2022-12-18T06:27:54;33.30;;;12.90;;
65597;SDS011;52267;51.984;20.956;2022-12-18T06:30:21;33.30;;;12.60;;
65597;SDS011;52267;51.984;20.956;2022-12-18T06:32:49;33.60;;;12.00;;
65597;SDS011;52267;51.984;20.956;2022-12-18T06:35:16;31.40;;;11.60;;
65597;SDS011;52267;51.984;20.956;2022-12-18T06:37:43;35.30;;;13.10;;
65597;SDS011;52267;51.984;20.956;2022-12-18T06:40:10;34.80;;;13.80;;
65597;SDS011;52267;51.984;20.956;2022-12-18T06:42:37;37.60;;;13.40;;
65597;SDS011;52267;51.984;20.956;2022-12-18T06:45:05;26.50;;;12.80;;
65597;SDS011;52267;51.984;20.956;2022-12-18T06:47:32;34.30;;;14.10;;
65597;SDS011;52267;51.984;20.956;2022-12-18T06:49:59;32.40;;;14.70;;
65597;SDS011;52267;51.984;20.956;2022-12-18T06:52:26;32.40;;;13.60;;
65597;SDS011;52267;51.984;20.956;2022-12-18T06:54:53;32.00;;;13.70;;
65597;SDS011;52267;51.984;20.956;2022-12-18T06:57:20;39.40;;;14.40;;
65597;SDS011;52267;51.984;20.956;2022-12-18T06:59:48;36.50;;;14.00;;
65597;SDS011;52267;51.984;20.956;2022-12-18T07:02:15;36.70;;;13.50;;
65597;SDS011;52267;51.984;20.956;2022-12-18T07:04:42;37.40;;;14.20;;
65597;SDS011;52267;51.984;20.956;2022-12-18T07:07:09;36.60;;;13.60;;
65597;SDS011;52267;51.984;20.956;2022-12-18T07:09:36;33.30;;;13.90;;
65597;SDS011;52267;51.984;20.956;2022-12-18T07:12:03;32.00;;;13.80;;
65597;SDS011;52267;51.984;20.956;2022-12-18T07:14:31;41.80;;;15.20;;
65597;SDS011;52267;51.984;20.956;2022-12-18T07:16:58;32.40;;;12.90;;
65597;SDS011;52267;51.984;20.956;2022-12-18T07:19:25;37.40;;;13.90;;
65597;SDS011;52267;51.984;20.956;2022-12-18T07:21:52;42.60;;;16.60;;
65597;SDS011;52267;51.984;20.956;2022-12-18T07:24:19;34.80;;;15.00;;
65597;SDS011;52267;51.984;20.956;2022-12-18T07:26:47;40.00;;;16.20;;
65597;SDS011;52267;51.984;20.956;2022-12-18T07:29:14;42.10;;;16.70;;
65597;SDS011;52267;51.984;20.956;2022-12-18T07:31:41;39.20;;;16.70;;
65597;SDS011;52267;51.984;20.956;2022-12-18T07:34:13;41.40;;;16.60;;
65597;SDS011;52267;51.984;20.956;2022-12-18T07:36:41;41.20;;;16.60;;
65597;SDS011;52267;51.984;20.956;2022-12-18T07:39:10;34.30;;;16.10;;
65597;SDS011;52267;51.984;20.956;2022-12-18T07:41:38;45.00;;;18.30;;
65597;SDS011;52267;51.984;20.956;2022-12-18T07:44:10;39.30;;;18.70;;
65597;SDS011;52267;51.984;20.956;2022-12-18T07:46:37;47.90;;;17.10;;
65597;SDS011;52267;51.984;20.956;2022-12-18T07:49:05;42.70;;;18.10;;
65597;SDS011;52267;51.984;20.956;2022-12-18T07:51:32;39.20;;;17.00;;
65597;SDS011;52267;51.984;20.956;2022-12-18T07:53:59;46.60;;;18.80;;
65597;SDS011;52267;51.984;20.956;2022-12-18T07:56:26;44.90;;;18.80;;
65597;SDS011;52267;51.984;20.956;2022-12-18T07:58:53;43.80;;;17.90;;
65597;SDS011;52267;51.984;20.956;2022-12-18T08:01:21;45.20;;;17.50;;
65597;SDS011;52267;51.984;20.956;2022-12-18T08:03:48;43.10;;;19.10;;
65597;SDS011;52267;51.984;20.956;2022-12-18T08:06:15;42.40;;;17.40;;
65597;SDS011;52267;51.984;20.956;2022-12-18T08:08:42;40.90;;;17.90;;
65597;SDS011;52267;51.984;20.956;2022-12-18T08:11:09;41.30;;;16.90;;
65597;SDS011;52267;51.984;20.956;2022-12-18T08:13:36;50.30;;;19.70;;
65597;SDS011;52267;51.984;20.956;2022-12-18T08:16:06;50.00;;;20.20;;
65597;SDS011;52267;51.984;20.956;2022-12-18T08:18:37;46.30;;;19.50;;
65597;SDS011;52267;51.984;20.956;2022-12-18T08:21:11;50.20;;;20.00;;
65597;SDS011;52267;51.984;20.956;2022-12-18T08:23:42;55.70;;;21.30;;
65597;SDS011;52267;51.984;20.956;2022-12-18T08:26:10;44.90;;;18.40;;
65597;SDS011;52267;51.984;20.956;2022-12-18T08:28:39;42.60;;;17.00;;
65597;SDS011;52267;51.984;20.956;2022-12-18T08:31:06;45.10;;;18.20;;
65597;SDS011;52267;51.984;20.956;2022-12-18T08:33:35;44.50;;;16.30;;
65597;SDS011;52267;51.984;20.956;2022-12-18T08:36:03;45.80;;;18.40;;
65597;SDS011;52267;51.984;20.956;2022-12-18T08:38:32;40.70;;;16.40;;
65597;SDS011;52267;51.984;20.956;2022-12-18T08:43:27;38.10;;;16.00;;
65597;SDS011;52267;51.984;20.956;2022-12-18T08:46:13;47.10;;;18.40;;
65597;SDS011;52267;51.984;20.956;2022-12-18T08:48:42;44.10;;;18.50;;
65597;SDS011;52267;51.984;20.956;2022-12-18T08:51:09;46.70;;;19.00;;
65597;SDS011;52267;51.984;20.956;2022-12-18T08:53:37;50.60;;;19.40;;
65597;SDS011;52267;51.984;20.956;2022-12-18T08:56:05;41.00;;;16.70;;
65597;SDS011;52267;51.984;20.956;2022-12-18T08:58:32;50.30;;;20.00;;
65597;SDS011;52267;51.984;20.956;2022-12-18T09:01:10;48.70;;;19.00;;
65597;SDS011;52267;51.984;20.956;2022-12-18T09:03:39;45.30;;;17.70;;
65597;SDS011;52267;51.984;20.956;2022-12-18T09:06:07;47.90;;;19.90;;
65597;SDS011;52267;51.984;20.956;2022-12-18T09:08:34;45.00;;;20.10;;
65597;SDS011;52267;51.984;20.956;2022-12-18T09:11:02;41.70;;;19.40;;
65597;SDS011;52267;51.984;20.956;2022-12-18T09:13:30;40.80;;;15.80;;
65597;SDS011;52267;51.984;20.956;2022-12-18T09:15:58;47.40;;;17.70;;
65597;SDS011;52267;51.984;20.956;2022-12-18T09:18:25;41.70;;;18.00;;
65597;SDS011;52267;51.984;20.956;2022-12-18T09:20:52;41.00;;;18.20;;
65597;SDS011;52267;51.984;20.956;2022-12-18T09:23:20;43.70;;;18.00;;
65597;SDS011;52267;51.984;20.956;2022-12-18T09:25:48;43.80;;;18.00;;
65597;SDS011;52267;51.984;20.956;2022-12-18T09:28:17;46.80;;;19.30;;
65597;SDS011;52267;51.984;20.956;2022-12-18T09:30:47;48.10;;;19.60;;
65597;SDS011;52267;51.984;20.956;2022-12-18T09:33:16;47.00;;;18.50;;
65597;SDS011;52267;51.984;20.956;2022-12-18T09:35:44;41.90;;;18.50;;
65597;SDS011;52267;51.984;20.956;2022-12-18T09:38:18;44.10;;;19.10;;
65597;SDS011;52267;51.984;20.956;2022-12-18T09:40:51;39.20;;;15.10;;
65597;SDS011;52267;51.984;20.956;2022-12-18T09:43:26;50.90;;;20.60;;
65597;SDS011;52267;51.984;20.956;2022-12-18T09:46:03;54.10;;;20.60;;
65597;SDS011;52267;51.984;20.956;2022-12-18T09:48:37;43.30;;;17.80;;
65597;SDS011;52267;51.984;20.956;2022-12-18T09:51:17;46.40;;;20.10;;
65597;SDS011;52267;51.984;20.956;2022-12-18T09:54:07;50.40;;;20.70;;
65597;SDS011;52267;51.984;20.956;2022-12-18T09:56:42;39.80;;;17.30;;
65597;SDS011;52267;51.984;20.956;2022-12-18T09:59:37;49.50;;;20.40;;
65597;SDS011;52267;51.984;20.956;2022-12-18T10:02:21;46.80;;;18.40;;
65597;SDS011;52267;51.984;20.956;2022-12-18T10:05:03;45.00;;;17.30;;
65597;SDS011;52267;51.984;20.956;2022-12-18T10:07:55;48.30;;;19.60;;
65597;SDS011;52267;51.984;20.956;2022-12-18T10:13:39;48.90;;;19.90;;
65597;SDS011;52267;51.984;20.956;2022-12-18T10:16:22;46.00;;;18.30;;
65597;SDS011;52267;51.984;20.956;2022-12-18T10:22:09;41.20;;;16.90;;
65597;SDS011;52267;51.984;20.956;2022-12-18T10:27:55;40.60;;;16.10;;
65597;SDS011;52267;51.984;20.956;2022-12-18T10:30:25;44.40;;;17.80;;
65597;SDS011;52267;51.984;20.956;2022-12-18T10:32:52;46.10;;;19.50;;
65597;SDS011;52267;51.984;20.956;2022-12-18T10:35:23;47.10;;;19.40;;
65597;SDS011;52267;51.984;20.956;2022-12-18T10:51:07;44.20;;;19.50;;
65597;SDS011;52267;51.984;20.956;2022-12-18T10:53:36;48.40;;;18.10;;
65597;SDS011;52267;51.984;20.956;2022-12-18T10:56:05;36.00;;;18.50;;
65597;SDS011;52267;51.984;20.956;2022-12-18T10:58:35;47.80;;;19.50;;
65597;SDS011;52267;51.984;20.956;2022-12-18T11:03:42;42.40;;;16.70;;
65597;SDS011;52267;51.984;20.956;2022-12-18T11:06:16;39.30;;;15.80;;
65597;SDS011;52267;51.984;20.956;2022-12-18T11:08:58;44.20;;;16.40;;
65597;SDS011;52267;51.984;20.956;2022-12-18T11:11:26;40.20;;;16.30;;
65597;SDS011;52267;51.984;20.956;2022-12-18T11:14:24;43.30;;;18.20;;
65597;SDS011;52267;51.984;20.956;2022-12-18T11:16:54;39.80;;;17.30;;
65597;SDS011;52267;51.984;20.956;2022-12-18T11:19:36;45.40;;;17.40;;
65597;SDS011;52267;51.984;20.956;2022-12-18T11:22:19;54.10;;;18.40;;
65597;SDS011;52267;51.984;20.956;2022-12-18T11:27:55;36.80;;;15.50;;
65597;SDS011;52267;51.984;20.956;2022-12-18T11:30:35;47.00;;;18.50;;
65597;SDS011;52267;51.984;20.956;2022-12-18T11:33:10;37.10;;;15.70;;
65597;SDS011;52267;51.984;20.956;2022-12-18T11:36:01;42.50;;;16.90;;
65597;SDS011;52267;51.984;20.956;2022-12-18T11:38:35;41.90;;;16.30;;
65597;SDS011;52267;51.984;20.956;2022-12-18T11:41:24;45.30;;;17.40;;
65597;SDS011;52267;51.984;20.956;2022-12-18T11:44:22;44.40;;;17.80;;
65597;SDS011;52267;51.984;20.956;2022-12-18T11:46:59;49.40;;;19.20;;
65597;SDS011;52267;51.984;20.956;2022-12-18T11:49:33;46.30;;;19.80;;
65597;SDS011;52267;51.984;20.956;2022-12-18T11:54:52;36.70;;;16.10;;
65597;SDS011;52267;51.984;20.956;2022-12-18T12:00:12;31.90;;;13.90;;
65597;SDS011;52267;51.984;20.956;2022-12-18T12:11:46;43.50;;;19.70;;
65597;SDS011;52267;51.984;20.956;2022-12-18T12:26:07;46.40;;;18.60;;
65597;SDS011;52267;51.984;20.956;2022-12-18T12:29:17;41.10;;;16.90;;
65597;SDS011;52267;51.984;20.956;2022-12-18T12:37:44;49.20;;;20.20;;
65597;SDS011;52267;51.984;20.956;2022-12-18T12:40:27;44.30;;;18.90;;
65597;SDS011;52267;51.984;20.956;2022-12-18T12:43:01;41.20;;;17.20;;
65597;SDS011;52267;51.984;20.956;2022-12-18T12:46:03;46.00;;;17.60;;
65597;SDS011;52267;51.984;20.956;2022-12-18T12:48:53;39.30;;;16.70;;
65597;SDS011;52267;51.984;20.956;2022-12-18T12:51:25;39.80;;;15.90;;
65597;SDS011;52267;51.984;20.956;2022-12-18T12:53:56;39.90;;;17.30;;
65597;SDS011;52267;51.984;20.956;2022-12-18T12:56:28;46.00;;;16.80;;
65597;SDS011;52267;51.984;20.956;2022-12-18T13:02:24;49.80;;;17.70;;
65597;SDS011;52267;51.984;20.956;2022-12-18T13:05:16;56.50;;;22.80;;
65597;SDS011;52267;51.984;20.956;2022-12-18T13:07:54;48.10;;;19.90;;
65597;SDS011;52267;51.984;20.956;2022-12-18T13:15:30;48.80;;;17.90;;
65597;SDS011;52267;51.984;20.956;2022-12-18T13:20:40;39.90;;;15.50;;
65597;SDS011;52267;51.984;20.956;2022-12-18T13:25:52;53.20;;;20.20;;
65597;SDS011;52267;51.984;20.956;2022-12-18T13:31:01;41.70;;;16.90;;
65597;SDS011;52267;51.984;20.956;2022-12-18T13:39:33;42.10;;;15.90;;
65597;SDS011;52267;51.984;20.956;2022-12-18T13:44:40;38.50;;;16.40;;
65597;SDS011;52267;51.984;20.956;2022-12-18T13:47:32;36.60;;;14.50;;
65597;SDS011;52267;51.984;20.956;2022-12-18T13:52:35;45.80;;;17.90;;
65597;SDS011;52267;51.984;20.956;2022-12-18T13:55:10;37.50;;;17.80;;
65597;SDS011;52267;51.984;20.956;2022-12-18T13:57:42;35.70;;;14.40;;
65597;SDS011;52267;51.984;20.956;2022-12-18T14:02:49;34.40;;;14.10;;
65597;SDS011;52267;51.984;20.956;2022-12-18T14:05:31;40.30;;;14.60;;
65597;SDS011;52267;51.984;20.956;2022-12-18T14:08:10;68.20;;;27.60;;
65597;SDS011;52267;51.984;20.956;2022-12-18T14:10:41;41.90;;;17.50;;
65597;SDS011;52267;51.984;20.956;2022-12-18T14:13:13;50.60;;;20.50;;
65597;SDS011;52267;51.984;20.956;2022-12-18T14:16:06;33.60;;;14.30;;
65597;SDS011;52267;51.984;20.956;2022-12-18T14:18:38;44.60;;;18.30;;
65597;SDS011;52267;51.984;20.956;2022-12-18T14:21:18;44.10;;;18.80;;
65597;SDS011;52267;51.984;20.956;2022-12-18T14:23:47;38.50;;;16.20;;
65597;SDS011;52267;51.984;20.956;2022-12-18T14:26:29;47.00;;;18.20;;
65597;SDS011;52267;51.984;20.956;2022-12-18T14:28:59;36.20;;;15.10;;
65597;SDS011;52267;51.984;20.956;2022-12-18T14:31:29;41.20;;;14.90;;
65597;SDS011;52267;51.984;20.956;2022-12-18T14:33:58;38.40;;;14.80;;
65597;SDS011;52267;51.984;20.956;2022-12-18T14:36:27;36.90;;;16.00;;
65597;SDS011;52267;51.984;20.956;2022-12-18T14:38:58;50.80;;;22.40;;
65597;SDS011;52267;51.984;20.956;2022-12-18T14:41:26;46.60;;;21.60;;
65597;SDS011;52267;51.984;20.956;2022-12-18T14:43:54;46.10;;;19.50;;
65597;SDS011;52267;51.984;20.956;2022-12-18T14:46:28;45.20;;;20.90;;
65597;SDS011;52267;51.984;20.956;2022-12-18T14:49:33;59.60;;;26.30;;
65597;SDS011;52267;51.984;20.956;2022-12-18T14:52:06;48.60;;;19.60;;
65597;SDS011;52267;51.984;20.956;2022-12-18T14:54:54;46.30;;;18.80;;
65597;SDS011;52267;51.984;20.956;2022-12-18T14:57:27;45.10;;;17.40;;
65597;SDS011;52267;51.984;20.956;2022-12-18T15:00:15;39.00;;;16.20;;
65597;SDS011;52267;51.984;20.956;2022-12-18T15:02:57;41.80;;;16.30;;
65597;SDS011;52267;51.984;20.956;2022-12-18T15:05:28;46.30;;;18.50;;
65597;SDS011;52267;51.984;20.956;2022-12-18T15:08:00;43.90;;;16.90;;
65597;SDS011;52267;51.984;20.956;2022-12-18T15:10:32;34.40;;;14.70;;
65597;SDS011;52267;51.984;20.956;2022-12-18T15:18:14;37.60;;;15.80;;
65597;SDS011;52267;51.984;20.956;2022-12-18T15:20:57;38.20;;;17.30;;
65597;SDS011;52267;51.984;20.956;2022-12-18T15:23:52;39.10;;;16.40;;
65597;SDS011;52267;51.984;20.956;2022-12-18T15:26:21;42.90;;;17.20;;
65597;SDS011;52267;51.984;20.956;2022-12-18T15:28:52;43.10;;;17.90;;
65597;SDS011;52267;51.984;20.956;2022-12-18T15:31:31;39.20;;;16.40;;
65597;SDS011;52267;51.984;20.956;2022-12-18T15:34:19;18.10;;;7.70;;
65597;SDS011;52267;51.984;20.956;2022-12-18T15:36:50;39.90;;;17.00;;
65597;SDS011;52267;51.984;20.956;2022-12-18T15:39:19;45.50;;;18.10;;
65597;SDS011;52267;51.984;20.956;2022-12-18T15:41:47;37.90;;;16.40;;
65597;SDS011;52267;51.984;20.956;2022-12-18T15:44:33;37.00;;;16.40;;
65597;SDS011;52267;51.984;20.956;2022-12-18T15:47:01;38.10;;;18.20;;
65597;SDS011;52267;51.984;20.956;2022-12-18T15:49:29;41.90;;;18.90;;
65597;SDS011;52267;51.984;20.956;2022-12-18T15:51:58;58.60;;;22.90;;
65597;SDS011;52267;51.984;20.956;2022-12-18T15:54:28;50.10;;;18.90;;
65597;SDS011;52267;51.984;20.956;2022-12-18T15:57:15;38.30;;;16.80;;
65597;SDS011;52267;51.984;20.956;2022-12-18T15:59:55;39.30;;;14.80;;
65597;SDS011;52267;51.984;20.956;2022-12-18T16:03:16;39.00;;;16.40;;
65597;SDS011;52267;51.984;20.956;2022-12-18T16:05:44;45.80;;;18.00;;
65597;SDS011;52267;51.984;20.956;2022-12-18T16:08:12;39.30;;;16.00;;
65597;SDS011;52267;51.984;20.956;2022-12-18T16:10:41;34.40;;;15.80;;
65597;SDS011;52267;51.984;20.956;2022-12-18T16:13:16;38.00;;;15.50;;
65597;SDS011;52267;51.984;20.956;2022-12-18T16:15:46;52.40;;;20.10;;
65597;SDS011;52267;51.984;20.956;2022-12-18T16:18:16;29.50;;;14.10;;
65597;SDS011;52267;51.984;20.956;2022-12-18T16:20:47;35.60;;;15.10;;
65597;SDS011;52267;51.984;20.956;2022-12-18T16:23:16;39.80;;;15.80;;
65597;SDS011;52267;51.984;20.956;2022-12-18T16:25:47;44.20;;;19.30;;
65597;SDS011;52267;51.984;20.956;2022-12-18T16:28:15;42.40;;;16.10;;
65597;SDS011;52267;51.984;20.956;2022-12-18T16:30:44;32.70;;;13.00;;
65597;SDS011;52267;51.984;20.956;2022-12-18T16:33:12;42.90;;;16.20;;
65597;SDS011;52267;51.984;20.956;2022-12-18T16:35:40;50.60;;;19.70;;
65597;SDS011;52267;51.984;20.956;2022-12-18T16:38:08;44.00;;;17.60;;
65597;SDS011;52267;51.984;20.956;2022-12-18T16:40:37;40.20;;;16.10;;
65597;SDS011;52267;51.984;20.956;2022-12-18T16:43:25;43.20;;;17.60;;
65597;SDS011;52267;51.984;20.956;2022-12-18T16:45:53;39.90;;;17.60;;
65597;SDS011;52267;51.984;20.956;2022-12-18T16:48:24;47.50;;;20.60;;
65597;SDS011;52267;51.984;20.956;2022-12-18T16:51:00;50.00;;;22.10;;
65597;SDS011;52267;51.984;20.956;2022-12-18T16:53:32;41.90;;;17.80;;
65597;SDS011;52267;51.984;20.956;2022-12-18T16:56:00;50.10;;;21.40;;
65597;SDS011;52267;51.984;20.956;2022-12-18T16:58:29;47.00;;;20.70;;